createdAt,value
2019-02-11T00:01:00.533Z,6.20
2019-02-11T00:03:27.916Z,5.42
2019-02-11T00:05:55.276Z,5.97
2019-02-11T00:08:22.556Z,5.58
2019-02-11T00:10:49.781Z,5.80
2019-02-11T00:13:22.060Z,6.55
2019-02-11T00:15:49.084Z,6.50
2019-02-11T00:18:16.212Z,6.83
2019-02-11T00:20:43.385Z,6.47
2019-02-11T00:23:11.295Z,7.87
2019-02-11T00:25:38.336Z,6.90
2019-02-11T00:28:06.797Z,7.00
2019-02-11T00:30:34.334Z,7.60
2019-02-11T00:33:01.538Z,6.72
2019-02-11T00:35:28.609Z,6.03
2019-02-11T00:37:56.040Z,5.05
2019-02-11T00:40:23.277Z,4.85
2019-02-11T00:42:52.058Z,4.75
2019-02-11T00:45:20.060Z,5.55
2019-02-11T00:47:48.361Z,5.47
2019-02-11T00:50:16.395Z,5.20
2019-02-11T00:52:44.439Z,6.22
2019-02-11T00:55:22.188Z,6.95
2019-02-11T00:57:49.501Z,6.05
2019-02-11T01:00:16.618Z,7.60
2019-02-11T01:02:43.641Z,7.28
2019-02-11T01:05:11.664Z,8.60
2019-02-11T01:07:40.080Z,7.72
2019-02-11T01:10:09.419Z,8.38
2019-02-11T01:12:38.157Z,9.00
2019-02-11T01:15:07.793Z,8.75
2019-02-11T01:17:35.907Z,8.88
2019-02-11T01:20:05.979Z,8.85
2019-02-11T01:22:34.383Z,8.85
2019-02-11T01:25:02.569Z,9.03
2019-02-11T01:27:30.499Z,8.58
2019-02-11T01:29:58.630Z,10.08
2019-02-11T01:32:26.954Z,10.60
2019-02-11T01:34:55.018Z,9.05
2019-02-11T01:37:23.209Z,9.53
2019-02-11T01:39:51.143Z,9.80
2019-02-11T01:42:19.178Z,9.68
2019-02-11T01:44:47.374Z,9.20
2019-02-11T01:47:15.831Z,9.00
2019-02-11T01:49:43.861Z,10.95
2019-02-11T01:52:11.886Z,10.95
2019-02-11T01:54:41.175Z,10.68
2019-02-11T01:57:09.146Z,9.73
2019-02-11T01:59:37.356Z,8.50
2019-02-11T02:02:05.298Z,9.33
2019-02-11T02:04:33.344Z,9.70
2019-02-11T02:07:01.335Z,9.55
2019-02-11T02:09:29.496Z,8.55
2019-02-11T02:11:57.534Z,8.25
2019-02-11T02:14:25.525Z,9.80
2019-02-11T02:16:53.722Z,9.30
2019-02-11T02:19:22.084Z,7.80
2019-02-11T02:21:50.521Z,7.83
2019-02-11T02:24:18.977Z,7.62
2019-02-11T02:26:47.758Z,7.78
2019-02-11T02:29:16.459Z,8.65
2019-02-11T02:31:44.632Z,6.70
2019-02-11T02:34:13.057Z,7.45
2019-02-11T02:36:41.456Z,6.53
2019-02-11T02:39:09.668Z,6.83
2019-02-11T02:41:38.190Z,8.40
2019-02-11T02:44:06.607Z,6.30
2019-02-11T02:46:36.106Z,5.20
2019-02-11T02:49:04.158Z,3.95
2019-02-11T02:51:32.317Z,3.77
2019-02-11T02:54:00.868Z,3.20
2019-02-11T02:56:29.343Z,3.77
2019-02-11T02:58:58.017Z,2.92
2019-02-11T03:01:26.462Z,2.10
2019-02-11T03:03:54.584Z,2.65
2019-02-11T03:06:22.761Z,2.35
2019-02-11T03:08:51.086Z,2.10
2019-02-11T03:11:19.270Z,3.10
2019-02-11T03:13:47.213Z,2.60
2019-02-11T03:16:15.468Z,2.70
2019-02-11T03:18:45.388Z,2.35
2019-02-11T03:21:13.431Z,2.40
2019-02-11T03:23:41.723Z,3.00
2019-02-11T03:26:10.466Z,3.27
2019-02-11T03:28:38.888Z,4.20
2019-02-11T03:31:07.426Z,4.35
2019-02-11T03:33:35.935Z,4.17
2019-02-11T03:36:04.810Z,6.80
2019-02-11T03:38:33.333Z,5.90
2019-02-11T03:41:01.577Z,5.85
2019-02-11T03:43:30.082Z,7.12
2019-02-11T03:45:58.700Z,5.90
2019-02-11T03:48:28.238Z,7.45
2019-02-11T03:50:56.621Z,9.00
2019-02-11T03:53:25.428Z,9.85
2019-02-11T03:55:54.416Z,10.38
2019-02-11T03:58:22.685Z,9.90
2019-02-11T04:00:50.879Z,10.60
2019-02-11T04:03:19.393Z,11.85
2019-02-11T04:05:47.850Z,10.48
2019-02-11T04:08:16.323Z,10.95
2019-02-11T04:10:44.638Z,11.12
2019-02-11T04:13:12.815Z,10.10
2019-02-11T04:15:42.049Z,10.85
2019-02-11T04:18:10.354Z,10.35
2019-02-11T04:20:38.948Z,10.55
2019-02-11T04:23:07.425Z,11.20
2019-02-11T04:25:35.581Z,11.22
2019-02-11T04:28:03.835Z,10.98
2019-02-11T04:30:32.651Z,11.38
2019-02-11T04:33:00.873Z,10.98
2019-02-11T04:35:29.581Z,10.30
2019-02-11T04:37:59.943Z,12.50
2019-02-11T04:40:27.914Z,9.85
2019-02-11T04:42:56.545Z,8.30
2019-02-11T04:45:24.833Z,8.55
2019-02-11T04:47:53.370Z,7.90
2019-02-11T04:50:21.961Z,8.63
2019-02-11T04:52:50.702Z,8.78
2019-02-11T04:55:19.415Z,7.62
2019-02-11T04:57:47.590Z,7.00
2019-02-11T05:00:16.013Z,7.47
2019-02-11T05:02:44.301Z,6.83
2019-02-11T05:05:13.876Z,6.22
2019-02-11T05:07:42.013Z,6.30
2019-02-11T05:10:11.215Z,5.40
2019-02-11T05:12:39.755Z,4.83
2019-02-11T05:15:09.381Z,5.10
2019-02-11T05:17:38.166Z,5.42
2019-02-11T05:20:07.315Z,4.53
2019-02-11T05:22:35.935Z,4.28
2019-02-11T05:25:04.398Z,4.50
2019-02-11T05:27:33.285Z,4.87
2019-02-11T05:30:01.865Z,4.20
2019-02-11T05:32:30.530Z,4.50
2019-02-11T05:34:58.970Z,6.03
2019-02-11T05:37:27.837Z,4.25
2019-02-11T05:39:56.364Z,4.50
2019-02-11T05:42:24.537Z,3.98
2019-02-11T05:44:54.303Z,4.55
2019-02-11T05:47:22.973Z,3.90
2019-02-11T05:49:51.746Z,5.65
2019-02-11T05:52:20.688Z,4.53
2019-02-11T05:54:49.419Z,4.37
2019-02-11T05:57:17.956Z,4.33
2019-02-11T05:59:46.860Z,4.85
2019-02-11T06:02:18.282Z,4.30
2019-02-11T06:04:46.919Z,4.05
2019-02-11T06:07:15.588Z,4.55
2019-02-11T06:09:44.025Z,4.08
2019-02-11T06:12:12.695Z,4.40
2019-02-11T06:14:41.865Z,4.30
2019-02-11T06:17:10.062Z,3.42
2019-02-11T06:19:38.974Z,3.77
2019-02-11T06:22:07.930Z,4.12
2019-02-11T06:24:36.635Z,4.20
2019-02-11T06:27:05.180Z,3.85
2019-02-11T06:29:33.350Z,4.37
2019-02-11T06:32:02.133Z,5.58
2019-02-11T06:34:30.551Z,5.80
2019-02-11T06:36:59.113Z,5.55
2019-02-11T06:39:27.278Z,7.00
2019-02-11T06:41:55.881Z,7.53
2019-02-11T06:44:24.152Z,9.15
2019-02-11T06:46:54.829Z,12.10
2019-02-11T06:49:23.035Z,9.65
2019-02-11T06:51:51.173Z,11.40
2019-02-11T06:54:23.997Z,11.10
2019-02-11T06:56:52.501Z,12.33
2019-02-11T06:59:21.054Z,13.20
2019-02-11T07:01:49.617Z,13.80
2019-02-11T07:04:26.978Z,15.43
2019-02-11T07:06:54.259Z,15.68
2019-02-11T07:09:25.860Z,14.95
2019-02-11T07:11:53.624Z,15.95
2019-02-11T07:14:22.194Z,15.60
2019-02-11T07:16:50.670Z,15.00
2019-02-11T07:19:19.523Z,14.87
2019-02-11T07:21:47.894Z,14.28
2019-02-11T07:24:22.114Z,16.55
2019-02-11T07:26:50.605Z,14.05
2019-02-11T07:29:18.825Z,14.10
2019-02-11T07:31:47.814Z,13.80
2019-02-11T07:34:15.985Z,14.07
2019-02-11T07:36:44.092Z,14.45
2019-02-11T07:39:12.136Z,13.43
2019-02-11T07:42:02.488Z,13.40
2019-02-11T07:44:39.092Z,12.75
2019-02-11T07:47:06.405Z,12.70
2019-02-11T07:49:33.742Z,12.30
2019-02-11T07:52:01.782Z,10.90
2019-02-11T07:54:29.843Z,10.53
2019-02-11T07:56:57.809Z,10.78
2019-02-11T07:59:25.948Z,9.95
2019-02-11T08:01:54.008Z,10.03
2019-02-11T08:04:22.091Z,9.58
2019-02-11T08:06:50.146Z,10.25
2019-02-11T08:09:18.285Z,9.28
2019-02-11T08:11:46.251Z,10.35
2019-02-11T08:14:14.228Z,9.30
2019-02-11T08:16:42.549Z,10.00
2019-02-11T08:19:12.145Z,9.93
2019-02-11T08:21:40.294Z,10.50
2019-02-11T08:24:08.613Z,10.88
2019-02-11T08:26:36.544Z,10.35
2019-02-11T08:29:04.679Z,11.38
2019-02-11T08:31:33.261Z,10.95
2019-02-11T08:34:01.172Z,10.28
2019-02-11T08:36:29.801Z,8.93
2019-02-11T08:38:57.785Z,9.53
2019-02-11T08:41:25.953Z,10.30
2019-02-11T08:43:54.145Z,10.95
2019-02-11T08:46:22.268Z,9.85
2019-02-11T08:48:50.370Z,10.55
2019-02-11T08:51:18.769Z,10.68
2019-02-11T08:53:46.809Z,10.55
2019-02-11T08:56:14.777Z,9.70
2019-02-11T08:58:42.805Z,9.25
2019-02-11T09:01:12.686Z,10.53
2019-02-11T09:03:40.761Z,8.70
2019-02-11T09:06:08.744Z,9.50
2019-02-11T09:08:36.684Z,10.75
2019-02-11T09:11:04.697Z,8.88
2019-02-11T09:13:37.749Z,8.48
2019-02-11T09:16:06.002Z,12.55
2019-02-11T09:18:34.161Z,11.28
2019-02-11T09:21:02.290Z,12.65
2019-02-11T09:23:30.345Z,9.10
2019-02-11T09:26:02.429Z,9.65
2019-02-11T09:28:30.652Z,9.35
2019-02-11T09:30:58.681Z,8.15
2019-02-11T09:33:26.950Z,9.20
2019-02-11T09:35:55.359Z,8.55
2019-02-11T09:38:23.721Z,7.95
2019-02-11T09:40:53.521Z,9.05
2019-02-11T09:43:21.569Z,10.08
2019-02-11T09:45:50.145Z,9.60
2019-02-11T09:48:18.269Z,8.58
2019-02-11T09:50:49.478Z,9.10
2019-02-11T09:53:17.886Z,9.20
2019-02-11T09:55:45.997Z,8.70
2019-02-11T09:58:14.289Z,8.33
2019-02-11T10:00:42.333Z,8.90
2019-02-11T10:03:10.286Z,8.83
2019-02-11T10:05:41.309Z,8.43
2019-02-11T10:08:09.349Z,8.60
2019-02-11T10:10:37.373Z,7.85
2019-02-11T10:13:05.509Z,9.00
2019-02-11T10:15:33.685Z,8.43
2019-02-11T10:18:05.034Z,7.60
2019-02-11T10:20:33.387Z,7.80
2019-02-11T10:23:02.153Z,8.50
2019-02-11T10:25:30.293Z,8.53
2019-02-11T10:28:00.910Z,9.50
2019-02-11T10:30:32.922Z,9.08
2019-02-11T10:33:00.956Z,9.20
2019-02-11T10:35:29.093Z,7.85
2019-02-11T10:37:57.247Z,8.03
2019-02-11T10:40:25.629Z,8.20
2019-02-11T10:42:57.555Z,8.30
2019-02-11T10:45:26.206Z,8.80
2019-02-11T10:47:54.557Z,8.75
2019-02-11T10:50:22.610Z,9.30
2019-02-11T10:52:50.786Z,9.85
2019-02-11T10:55:23.125Z,9.50
2019-02-11T10:57:51.152Z,10.85
2019-02-11T11:00:20.705Z,10.72
2019-02-11T11:02:48.854Z,12.10
2019-02-11T11:05:16.984Z,11.00
2019-02-11T11:07:48.172Z,10.70
2019-02-11T11:10:22.021Z,9.95
2019-02-11T11:12:50.203Z,11.33
2019-02-11T11:15:18.813Z,9.58
2019-02-11T11:17:48.835Z,10.70
2019-02-11T11:20:17.685Z,10.93
2019-02-11T11:22:46.118Z,10.20
2019-02-11T11:25:15.262Z,13.43
2019-02-11T11:27:43.453Z,11.18
2019-02-11T11:30:11.930Z,11.30
2019-02-11T11:32:42.438Z,9.88
2019-02-11T11:35:10.665Z,10.68
2019-02-11T11:37:38.813Z,11.18
2019-02-11T11:40:08.281Z,9.60
2019-02-11T11:42:36.309Z,10.75
2019-02-11T11:45:10.349Z,10.05
2019-02-11T11:47:38.489Z,11.97
2019-02-11T11:50:06.869Z,10.30
2019-02-11T11:52:35.061Z,10.03
2019-02-11T11:55:08.522Z,10.32
2019-02-11T11:57:36.090Z,11.10
2019-02-11T12:00:09.944Z,10.20
2019-02-11T12:02:38.056Z,10.10
2019-02-11T12:05:06.288Z,9.20
2019-02-11T12:07:34.799Z,7.83
2019-02-11T12:10:03.625Z,7.87
2019-02-11T12:12:31.647Z,8.00
2019-02-11T12:14:59.762Z,7.70
2019-02-11T12:17:27.809Z,7.60
2019-02-11T12:19:59.796Z,7.07
2019-02-11T12:22:28.311Z,7.53
2019-02-11T12:24:56.989Z,5.70
2019-02-11T12:27:25.491Z,5.43
2019-02-11T12:29:53.560Z,6.13
2019-02-11T12:32:24.816Z,6.57
2019-02-11T12:34:53.316Z,5.57
2019-02-11T12:37:21.514Z,5.23
2019-02-11T12:39:49.616Z,4.10
2019-02-11T12:42:17.891Z,4.30
2019-02-11T12:44:50.001Z,3.43
2019-02-11T12:47:18.818Z,3.30
2019-02-11T12:49:47.124Z,3.10
2019-02-11T12:52:15.206Z,4.13
2019-02-11T12:54:43.754Z,2.50
2019-02-11T12:57:15.658Z,3.47
2019-02-11T12:59:44.088Z,3.60
2019-02-11T13:02:12.242Z,3.10
2019-02-11T13:04:40.192Z,2.93
2019-02-11T13:07:08.441Z,2.80
2019-02-11T13:09:40.169Z,3.80
2019-02-11T13:12:08.388Z,3.10
2019-02-11T13:14:36.524Z,3.13
2019-02-11T13:17:14.711Z,2.50
2019-02-11T13:19:34.396Z,2.70
2019-02-11T13:22:03.812Z,2.53
2019-02-11T13:24:33.222Z,2.50
2019-02-11T13:27:02.169Z,2.73
2019-02-11T13:29:29.393Z,2.30
2019-02-11T13:31:57.572Z,2.07
2019-02-11T13:34:27.790Z,2.03
2019-02-11T13:36:55.913Z,1.77
2019-02-11T13:39:24.043Z,1.73
2019-02-11T13:41:51.989Z,2.03
2019-02-11T13:44:20.012Z,1.90
2019-02-11T13:46:55.218Z,1.80
2019-02-11T13:49:22.244Z,2.80
2019-02-11T13:51:50.202Z,2.07
2019-02-11T13:54:18.575Z,2.17
2019-02-11T13:56:46.789Z,2.90
2019-02-11T13:59:17.067Z,2.37
2019-02-11T14:01:45.712Z,1.67
2019-02-11T14:04:13.892Z,1.90
2019-02-11T14:06:42.068Z,2.00
2019-02-11T14:09:11.465Z,1.93
2019-02-11T14:11:44.343Z,1.40
2019-02-11T14:14:12.360Z,1.40
2019-02-11T14:16:40.581Z,1.90
2019-02-11T14:19:09.609Z,1.73
2019-02-11T14:21:38.301Z,1.73
2019-02-11T14:24:07.790Z,2.50
2019-02-11T14:26:36.129Z,5.70
2019-02-11T14:29:04.267Z,1.93
2019-02-11T14:31:32.798Z,1.80
2019-02-11T14:34:01.083Z,1.70
2019-02-11T14:36:29.201Z,1.67
2019-02-11T14:39:03.184Z,1.80
2019-02-11T14:41:31.842Z,1.80
2019-02-11T14:44:00.402Z,1.83
2019-02-11T14:46:28.924Z,3.30
2019-02-11T14:48:56.998Z,2.20
2019-02-11T14:51:28.067Z,1.73
2019-02-11T14:53:56.485Z,2.50
2019-02-11T14:56:24.669Z,2.07
2019-02-11T14:58:52.740Z,2.30
2019-02-11T15:01:21.573Z,2.13
2019-02-11T15:03:53.383Z,2.17
2019-02-11T15:06:21.622Z,2.87
2019-02-11T15:08:49.814Z,1.73
2019-02-11T15:11:17.907Z,4.97
2019-02-11T15:13:46.222Z,2.37
2019-02-11T15:16:19.174Z,3.87
2019-02-11T15:18:47.525Z,2.00
2019-02-11T15:21:15.575Z,2.17
2019-02-11T15:23:43.603Z,2.03
2019-02-11T15:26:11.738Z,1.90
2019-02-11T15:28:42.401Z,1.97
2019-02-11T15:31:10.441Z,1.80
2019-02-11T15:33:38.502Z,1.40
2019-02-11T15:36:06.578Z,1.80
2019-02-11T15:38:34.619Z,2.47
2019-02-11T15:41:06.750Z,2.17
2019-02-11T15:43:34.693Z,2.53
2019-02-11T15:46:03.034Z,2.67
2019-02-11T15:48:31.390Z,2.60
2019-02-11T15:50:59.330Z,2.27
2019-02-11T15:53:27.585Z,2.30
2019-02-11T15:55:55.854Z,1.73
2019-02-11T15:58:23.978Z,2.90
2019-02-11T16:00:52.046Z,2.23
2019-02-11T16:03:20.238Z,2.70
2019-02-11T16:05:50.012Z,2.53
2019-02-11T16:08:18.411Z,2.20
2019-02-11T16:10:46.666Z,3.00
2019-02-11T16:13:19.548Z,2.30
2019-02-11T16:15:47.812Z,2.27
2019-02-11T16:18:16.509Z,2.10
2019-02-11T16:20:44.877Z,2.80
2019-02-11T16:23:13.177Z,1.83
2019-02-11T16:25:41.357Z,2.10
2019-02-11T16:28:09.557Z,2.20
2019-02-11T16:30:37.753Z,2.27
2019-02-11T16:33:05.902Z,2.60
2019-02-11T16:35:34.282Z,2.53
2019-02-11T16:38:02.818Z,2.40
2019-02-11T16:40:30.959Z,2.47
2019-02-11T16:42:59.005Z,2.90
2019-02-11T16:45:27.250Z,2.80
2019-02-11T16:47:55.435Z,2.52
2019-02-11T16:50:23.472Z,2.83
2019-02-11T16:52:51.502Z,3.10
2019-02-11T16:55:19.706Z,2.50
2019-02-11T16:57:47.733Z,2.45
2019-02-11T17:00:16.073Z,4.12
2019-02-11T17:02:44.137Z,3.03
2019-02-11T17:05:12.624Z,3.27
2019-02-11T17:07:42.278Z,2.65
2019-02-11T17:10:10.872Z,2.63
2019-02-11T17:12:39.025Z,2.15
2019-02-11T17:15:09.774Z,2.22
2019-02-11T17:17:38.499Z,2.35
2019-02-11T17:20:08.173Z,2.83
2019-02-11T17:22:36.325Z,2.80
2019-02-11T17:25:05.401Z,2.90
2019-02-11T17:27:33.602Z,2.33
2019-02-11T17:30:01.911Z,2.02
2019-02-11T17:32:30.687Z,2.08
2019-02-11T17:34:58.785Z,1.50
2019-02-11T17:37:26.869Z,1.80
2019-02-11T17:39:54.941Z,2.22
2019-02-11T17:42:22.970Z,3.52
2019-02-11T17:44:51.015Z,2.72
2019-02-11T17:47:19.168Z,3.15
2019-02-11T17:49:47.197Z,2.30
2019-02-11T17:52:15.560Z,3.12
2019-02-11T17:54:43.953Z,2.45
2019-02-11T17:57:12.318Z,2.30
2019-02-11T17:59:40.608Z,2.83
2019-02-11T18:02:12.973Z,3.05
2019-02-11T18:04:41.394Z,2.85
2019-02-11T18:07:09.752Z,2.85
2019-02-11T18:09:37.706Z,2.50
2019-02-11T18:12:05.975Z,3.75
2019-02-11T18:14:34.035Z,3.12
2019-02-11T18:17:02.153Z,2.30
2019-02-11T18:19:30.115Z,2.00
2019-02-11T18:21:58.403Z,2.87
2019-02-11T18:24:26.464Z,2.30
2019-02-11T18:26:54.978Z,2.47
2019-02-11T18:29:23.662Z,2.22
2019-02-11T18:31:51.818Z,2.25
2019-02-11T18:34:19.766Z,2.83
2019-02-11T18:36:47.846Z,2.65
2019-02-11T18:39:15.774Z,2.95
2019-02-11T18:41:43.982Z,2.70
2019-02-11T18:44:12.382Z,3.90
2019-02-11T18:46:40.338Z,2.55
2019-02-11T18:49:08.977Z,2.17
2019-02-11T18:51:37.373Z,2.45
2019-02-11T18:54:05.711Z,2.45
2019-02-11T18:56:33.896Z,2.52
2019-02-11T18:59:02.053Z,2.92
2019-02-11T19:01:30.342Z,3.72
2019-02-11T19:03:58.483Z,10.70
2019-02-11T19:06:26.631Z,3.98
2019-02-11T19:08:54.745Z,4.40
2019-02-11T19:11:23.086Z,4.00
2019-02-11T19:13:51.162Z,4.87
2019-02-11T19:16:19.179Z,5.25
2019-02-11T19:18:47.411Z,4.62
2019-02-11T19:21:15.514Z,3.80
2019-02-11T19:23:43.542Z,4.70
2019-02-11T19:26:11.611Z,5.40
2019-02-11T19:28:40.747Z,5.40
2019-02-11T19:31:08.717Z,6.40
2019-02-11T19:33:36.801Z,4.03
2019-02-11T19:36:04.857Z,4.50
2019-02-11T19:38:32.982Z,3.95
2019-02-11T19:41:01.137Z,4.50
2019-02-11T19:43:29.310Z,4.67
2019-02-11T19:45:57.499Z,5.65
2019-02-11T19:48:26.489Z,5.00
2019-02-11T19:50:55.037Z,3.98
2019-02-11T19:53:23.689Z,2.85
2019-02-11T19:55:51.969Z,3.30
2019-02-11T19:58:20.410Z,3.50
2019-02-11T20:00:48.806Z,3.12
2019-02-11T20:03:16.954Z,3.22
2019-02-11T20:05:45.229Z,5.00
2019-02-11T20:08:13.155Z,3.20
2019-02-11T20:10:41.478Z,2.55
2019-02-11T20:13:09.789Z,4.00
2019-02-11T20:15:37.821Z,3.05
2019-02-11T20:18:05.985Z,3.02
2019-02-11T20:20:34.113Z,4.47
2019-02-11T20:23:02.801Z,3.70
2019-02-11T20:25:30.703Z,4.90
2019-02-11T20:27:58.738Z,4.22
2019-02-11T20:30:26.831Z,3.20
2019-02-11T20:32:55.038Z,2.90
2019-02-11T20:35:23.068Z,2.80
2019-02-11T20:37:51.160Z,3.00
2019-02-11T20:40:20.522Z,3.35
2019-02-11T20:42:48.656Z,3.42
2019-02-11T20:45:22.041Z,3.25
2019-02-11T20:47:49.665Z,3.30
2019-02-11T20:50:17.111Z,2.70
2019-02-11T20:52:44.327Z,3.37
2019-02-11T20:55:12.569Z,3.95
2019-02-11T20:57:40.936Z,2.60
2019-02-11T21:00:12.961Z,4.40
2019-02-11T21:02:41.629Z,3.33
2019-02-11T21:05:10.129Z,5.50
2019-02-11T21:07:38.414Z,3.47
2019-02-11T21:10:08.326Z,4.25
2019-02-11T21:12:37.179Z,4.08
2019-02-11T21:15:06.149Z,3.60
2019-02-11T21:17:34.480Z,4.03
2019-02-11T21:20:03.321Z,4.37
2019-02-11T21:22:31.545Z,4.55
2019-02-11T21:24:59.811Z,4.45
2019-02-11T21:27:28.173Z,4.55
2019-02-11T21:29:56.217Z,3.80
2019-02-11T21:32:24.174Z,4.33
2019-02-11T21:34:52.230Z,3.87
2019-02-11T21:37:20.523Z,3.40
2019-02-11T21:39:48.700Z,4.20
2019-02-11T21:42:16.728Z,4.53
2019-02-11T21:44:44.756Z,3.70
2019-02-11T21:47:12.968Z,2.95
2019-02-11T21:49:41.446Z,3.72
2019-02-11T21:52:09.485Z,3.98
2019-02-11T21:54:37.581Z,3.40
2019-02-11T21:57:05.610Z,3.65
2019-02-11T21:59:33.533Z,3.58
2019-02-11T22:02:01.704Z,4.55
2019-02-11T22:04:29.916Z,6.22
2019-02-11T22:06:58.257Z,3.75
2019-02-11T22:09:26.421Z,3.70
2019-02-11T22:11:54.595Z,3.40
2019-02-11T22:14:22.678Z,3.08
2019-02-11T22:16:50.717Z,3.45
2019-02-11T22:19:18.945Z,3.62
2019-02-11T22:21:46.889Z,4.30
2019-02-11T22:24:14.945Z,4.35
2019-02-11T22:26:43.197Z,2.77
2019-02-11T22:29:11.437Z,3.25
2019-02-11T22:31:39.654Z,3.15
2019-02-11T22:34:07.801Z,2.90
2019-02-11T22:36:35.825Z,5.72
2019-02-11T22:39:06.194Z,4.47
2019-02-11T22:41:34.973Z,4.85
2019-02-11T22:44:03.488Z,4.47
2019-02-11T22:46:31.854Z,3.90
2019-02-11T22:49:00.442Z,3.10
2019-02-11T22:51:28.749Z,3.20
2019-02-11T22:53:57.136Z,3.83
2019-02-11T22:56:31.569Z,2.40
2019-02-11T22:58:57.782Z,3.15
2019-02-11T23:01:26.299Z,2.30
2019-02-11T23:03:54.874Z,2.58
2019-02-11T23:06:23.210Z,2.50
2019-02-11T23:08:51.397Z,3.35
2019-02-11T23:11:20.641Z,2.95
2019-02-11T23:13:48.941Z,2.85
2019-02-11T23:16:17.538Z,3.30
2019-02-11T23:18:46.518Z,3.47
2019-02-11T23:21:15.083Z,2.80
2019-02-11T23:23:44.606Z,2.95
2019-02-11T23:26:13.524Z,2.47
2019-02-11T23:28:41.601Z,1.80
2019-02-11T23:31:10.445Z,2.22
2019-02-11T23:33:39.017Z,2.90
2019-02-11T23:36:07.437Z,1.90
2019-02-11T23:38:36.160Z,3.45
2019-02-11T23:41:04.558Z,1.70
2019-02-11T23:43:32.013Z,1.82
2019-02-11T23:46:00.786Z,2.55
2019-02-11T23:48:29.205Z,2.22
2019-02-11T23:51:00.431Z,2.65
2019-02-11T23:53:28.334Z,3.15
2019-02-11T23:55:56.966Z,2.10
2019-02-11T23:58:25.088Z,1.95
